Time;durP1;ratioP1;P1;durP2;ratioP2;P2;SDS_P1;SDS_P2;PMS_P1;PMS_P2;Temp;Humidity;BMP_temperature;BMP_pressure;BME280_temperature;BME280_humidity;BME280_pressure;Samples;Min_cycle;Max_cycle;Signal;HPM_P1;HPM_P2
2023/06/29 00:01:03;;;;;;;9.40;4.22;;;;;;;18.31;100.00;101086.00;4991406;28;20082;-71
2023/06/29 00:03:29;;;;;;;14.70;4.88;;;;;;;18.24;100.00;101088.69;4987712;28;20509;-71
2023/06/29 00:05:55;;;;;;;11.63;4.97;;;;;;;18.24;100.00;101090.53;4989918;28;20035;-71
2023/06/29 00:08:35;;;;;;;9.52;4.75;;;;;;;18.22;100.00;101103.44;4988047;28;20034;-71
2023/06/29 00:11:02;;;;;;;8.30;4.65;;;;;;;18.24;100.00;101099.50;4994029;28;20046;-71
2023/06/29 00:13:28;;;;;;;9.07;4.10;;;;;;;18.28;100.00;101113.41;4984106;28;20975;-71
2023/06/29 00:15:53;;;;;;;11.50;5.57;;;;;;;18.33;100.00;101094.72;4989277;28;20109;-71
2023/06/29 00:18:18;;;;;;;10.33;4.90;;;;;;;18.28;100.00;101075.56;4985078;28;20675;-70
2023/06/29 00:20:44;;;;;;;9.07;6.03;;;;;;;18.19;100.00;101072.25;4989815;28;20042;-71
2023/06/29 00:23:10;;;;;;;10.90;5.95;;;;;;;18.14;100.00;101086.38;4984693;28;20155;-70
2023/06/29 00:25:36;;;;;;;8.10;4.90;;;;;;;18.21;100.00;101088.25;4989377;28;20038;-71
2023/06/29 00:28:02;;;;;;;12.13;4.75;;;;;;;18.19;100.00;101090.31;4977683;28;20797;-71
2023/06/29 00:30:27;;;;;;;9.13;5.22;;;;;;;18.29;100.00;101083.50;4984419;28;20038;-71
2023/06/29 00:32:53;;;;;;;10.50;5.47;;;;;;;18.34;100.00;101063.97;4991161;28;20045;-71
2023/06/29 00:35:18;;;;;;;9.13;5.43;;;;;;;18.20;100.00;101052.28;4972915;28;20039;-71
2023/06/29 00:37:43;;;;;;;7.87;5.23;;;;;;;18.25;100.00;101062.50;4989539;28;20041;-71
2023/06/29 00:40:09;;;;;;;11.47;5.83;;;;;;;18.26;100.00;101056.88;4979406;28;20138;-71
2023/06/29 00:42:35;;;;;;;8.68;4.97;;;;;;;18.19;100.00;101055.19;4989523;28;20402;-71
2023/06/29 00:45:03;;;;;;;8.80;5.63;;;;;;;18.12;100.00;101052.47;4986807;28;20062;-71
2023/06/29 00:47:29;;;;;;;;;;;;;;;18.14;100.00;101058.50;4973136;28;20044;-71
2023/06/29 00:49:55;;;;;;;12.50;6.20;;;;;;;18.16;100.00;101042.09;4989667;28;19921;-71
2023/06/29 00:52:21;;;;;;;11.02;6.82;;;;;;;18.06;100.00;101046.03;4965260;28;20033;-71
2023/06/29 00:54:47;;;;;;;10.40;5.75;;;;;;;18.14;100.00;101072.88;4989396;28;20042;-71
2023/06/29 00:57:14;;;;;;;9.13;5.72;;;;;;;18.04;100.00;101064.31;4984950;28;20065;-71
2023/06/29 00:59:40;;;;;;;10.32;6.10;;;;;;;18.04;100.00;101068.88;4989101;28;20454;-70
2023/06/29 01:02:08;;;;;;;9.33;5.87;;;;;;;18.10;100.00;101065.38;4979692;28;20035;-71
2023/06/29 01:04:35;;;;;;;14.88;6.60;;;;;;;18.14;100.00;101051.25;4982483;28;20030;-71
2023/06/29 01:07:07;;;;;;;11.90;5.97;;;;;;;18.13;100.00;101049.56;4977996;28;20045;-71
2023/06/29 01:09:33;;;;;;;9.85;6.75;;;;;;;18.06;100.00;101056.84;4992493;28;20073;-71
2023/06/29 01:12:01;;;;;;;20.77;7.78;;;;;;;18.05;100.00;101046.22;4986794;28;20038;-71
2023/06/29 01:14:26;;;;;;;11.20;6.68;;;;;;;18.08;100.00;101065.56;4982890;28;20086;-71
2023/06/29 01:16:53;;;;;;;13.00;6.80;;;;;;;18.06;100.00;101066.81;4979666;28;20611;-71
2023/06/29 01:19:24;;;;;;;13.43;6.35;;;;;;;17.99;100.00;101065.97;4995052;28;20423;-71
2023/06/29 01:22:03;;;;;;;9.40;5.68;;;;;;;18.06;100.00;101086.56;4971923;28;20048;-71
2023/06/29 01:24:41;;;;;;;9.93;5.38;;;;;;;18.13;100.00;101092.81;4985189;28;20069;-71
2023/06/29 01:27:07;;;;;;;10.93;6.10;;;;;;;18.10;100.00;101074.31;4973973;28;20411;-71
2023/06/29 01:29:33;;;;;;;;;;;;;;;18.17;100.00;101084.28;4988694;28;20506;-71
2023/06/29 01:32:00;;;;;;;10.18;6.68;;;;;;;18.01;100.00;101058.50;4988052;28;19917;-70
2023/06/29 01:34:31;;;;;;;12.38;7.28;;;;;;;18.04;100.00;101075.13;4987274;28;20745;-71
2023/06/29 01:37:04;;;;;;;14.52;7.28;;;;;;;18.01;100.00;101069.31;4983351;28;20041;-71
2023/06/29 01:39:41;;;;;;;11.30;6.55;;;;;;;18.01;100.00;101074.69;4988780;28;20050;-71
2023/06/29 01:42:10;;;;;;;13.90;7.30;;;;;;;18.04;100.00;101069.72;5001008;28;20034;-71
2023/06/29 01:44:35;;;;;;;14.43;7.90;;;;;;;17.97;100.00;101054.53;4976832;28;20056;-71
2023/06/29 01:47:01;;;;;;;12.80;7.83;;;;;;;17.86;100.00;101062.19;4986776;28;20042;-70
2023/06/29 01:49:27;;;;;;;9.40;6.75;;;;;;;17.90;100.00;101076.94;4958398;28;20302;-71
2023/06/29 01:51:53;;;;;;;;;;;;;;;17.92;100.00;101098.34;4983246;28;20030;-71
2023/06/29 01:54:19;;;;;;;13.77;7.00;;;;;;;17.87;100.00;101090.84;4985791;28;19916;-71
2023/06/29 01:56:44;;;;;;;14.50;7.37;;;;;;;17.90;100.00;101092.31;4968641;28;20038;-71
2023/06/29 01:59:10;;;;;;;10.20;6.70;;;;;;;17.95;100.00;101076.34;4978269;28;20145;-71
2023/06/29 02:01:35;;;;;;;11.57;8.13;;;;;;;17.97;100.00;101062.63;4984324;28;20096;-71
2023/06/29 02:04:02;;;;;;;13.30;6.97;;;;;;;17.94;100.00;101061.16;4985332;28;20038;-71
2023/06/29 02:06:28;;;;;;;14.68;8.02;;;;;;;17.90;100.00;101063.44;4984035;28;20062;-71
2023/06/29 02:08:53;;;;;;;12.13;8.33;;;;;;;17.89;100.00;101072.59;4986771;28;20489;-71
2023/06/29 02:11:20;;;;;;;11.50;7.45;;;;;;;17.82;100.00;101087.94;4986272;28;20058;-71
2023/06/29 02:13:46;;;;;;;11.10;7.22;;;;;;;17.84;100.00;101085.88;4987293;28;20064;-71
2023/06/29 02:16:11;;;;;;;15.60;8.10;;;;;;;17.83;100.00;101069.84;4984795;28;20030;-71
2023/06/29 02:18:36;;;;;;;11.93;7.57;;;;;;;17.88;100.00;101070.91;4987949;28;20698;-71
2023/06/29 02:21:02;;;;;;;12.97;7.83;;;;;;;17.91;100.00;101075.91;4988710;28;20092;-71
2023/06/29 02:23:28;;;;;;;11.80;7.20;;;;;;;17.89;100.00;101069.88;4982931;28;20033;-70
2023/06/29 02:25:53;;;;;;;13.23;7.57;;;;;;;17.90;100.00;101071.53;4979307;28;20038;-71
2023/06/29 02:28:19;;;;;;;12.07;7.13;;;;;;;17.88;100.00;101070.91;4983697;28;20420;-71
2023/06/29 02:30:44;;;;;;;13.30;7.77;;;;;;;17.72;100.00;101074.78;4984594;28;20287;-70
2023/06/29 02:33:09;;;;;;;8.93;7.20;;;;;;;17.81;100.00;101093.53;4977856;28;20034;-71
2023/06/29 02:35:35;;;;;;;11.53;7.33;;;;;;;17.76;100.00;101087.88;4983349;28;20538;-70
2023/06/29 02:38:00;;;;;;;11.00;6.07;;;;;;;17.85;100.00;101092.94;4995226;28;20052;-71
2023/06/29 02:40:27;;;;;;;12.25;7.00;;;;;;;17.91;100.00;101077.75;4977551;28;20038;-70
2023/06/29 02:42:52;;;;;;;11.23;6.30;;;;;;;17.81;100.00;101063.81;4991540;28;20038;-71
2023/06/29 02:45:18;;;;;;;10.68;6.63;;;;;;;17.81;100.00;101074.63;4970327;28;20121;-71
2023/06/29 02:47:44;;;;;;;10.67;6.97;;;;;;;17.77;100.00;101057.13;4995517;28;20026;-71
2023/06/29 02:50:09;;;;;;;18.30;8.10;;;;;;;17.75;100.00;101067.28;4991570;28;20117;-71
2023/06/29 02:52:42;;;;;;;10.57;7.13;;;;;;;17.63;100.00;101062.50;4986930;28;20030;-71
2023/06/29 02:55:08;;;;;;;11.60;7.03;;;;;;;17.70;100.00;101057.13;4968652;28;20130;-71
2023/06/29 02:57:33;;;;;;;15.27;7.57;;;;;;;17.68;100.00;101048.38;4985682;28;20038;-71
2023/06/29 02:59:58;;;;;;;12.10;7.43;;;;;;;17.57;100.00;101057.88;5001720;28;20343;-71
2023/06/29 03:02:24;;;;;;;9.55;6.68;;;;;;;17.63;100.00;101067.88;4984964;28;20118;-71
2023/06/29 03:04:49;;;;;;;9.55;6.68;;;;;;;17.67;100.00;101054.81;4973864;28;20054;-71
2023/06/29 03:07:15;;;;;;;10.37;6.47;;;;;;;17.57;100.00;101052.47;4981133;28;20023;-71
2023/06/29 03:09:40;;;;;;;12.83;7.27;;;;;;;17.56;100.00;101058.06;4989307;28;20108;-71
2023/06/29 03:12:07;;;;;;;10.17;7.37;;;;;;;17.47;100.00;101060.13;4988278;28;20045;-71
2023/06/29 03:14:32;;;;;;;13.73;8.20;;;;;;;17.46;100.00;101066.53;4990985;28;20053;-71
2023/06/29 03:16:58;;;;;;;11.10;7.90;;;;;;;17.56;100.00;101072.44;4989107;28;20030;-72
2023/06/29 03:19:23;;;;;;;15.40;8.30;;;;;;;17.48;100.00;101054.50;4984566;28;20026;-71
2023/06/29 03:21:49;;;;;;;10.97;8.17;;;;;;;17.47;100.00;101073.63;4988448;28;20567;-71
2023/06/29 03:24:14;;;;;;;12.50;7.63;;;;;;;17.47;100.00;101068.22;4989233;28;20465;-71
2023/06/29 03:26:39;;;;;;;18.27;9.50;;;;;;;17.54;100.00;101062.88;4987761;28;20034;-71
2023/06/29 03:29:05;;;;;;;12.70;7.70;;;;;;;17.58;100.00;101064.94;4989781;28;20035;-71
2023/06/29 03:31:30;;;;;;;12.20;8.07;;;;;;;17.64;100.00;101058.75;4987210;28;20026;-71
2023/06/29 03:33:57;;;;;;;13.57;9.43;;;;;;;17.50;100.00;101048.94;4987377;28;20519;-71
2023/06/29 03:36:23;;;;;;;15.88;8.75;;;;;;;17.54;100.00;101058.28;4989005;28;20018;-71
2023/06/29 03:38:48;;;;;;;12.43;8.23;;;;;;;17.64;100.00;101063.31;4988017;28;20038;-71
2023/06/29 03:41:14;;;;;;;12.20;8.20;;;;;;;17.67;100.00;101063.72;4985315;28;20069;-71
2023/06/29 03:43:39;;;;;;;18.03;9.30;;;;;;;17.72;100.00;101053.19;4985357;28;20038;-71
2023/06/29 03:46:04;;;;;;;16.57;8.97;;;;;;;17.75;100.00;101051.94;4990846;28;20231;-71
2023/06/29 03:48:30;;;;;;;15.47;8.90;;;;;;;17.64;100.00;101044.41;4987991;28;20030;-71
2023/06/29 03:50:57;;;;;;;16.38;9.52;;;;;;;17.60;100.00;101062.88;4992112;28;20018;-72
2023/06/29 03:53:22;;;;;;;15.50;9.45;;;;;;;17.70;100.00;101067.91;4985052;28;20546;-71
2023/06/29 03:55:48;;;;;;;14.33;8.53;;;;;;;17.76;100.00;101060.88;4991119;28;20031;-71
2023/06/29 03:58:14;;;;;;;11.75;7.93;;;;;;;17.82;100.00;101068.22;4980862;28;20180;-71
2023/06/29 04:00:40;;;;;;;13.25;9.20;;;;;;;17.84;100.00;101061.56;4991760;28;20023;-71
2023/06/29 04:03:05;;;;;;;16.30;9.93;;;;;;;17.80;100.00;101052.16;4987160;28;20050;-71
2023/06/29 04:05:31;;;;;;;17.77;10.27;;;;;;;17.78;100.00;101069.59;4979764;28;20353;-72
2023/06/29 04:07:57;;;;;;;18.40;9.93;;;;;;;17.82;100.00;101069.03;4986799;28;20037;-71
2023/06/29 04:10:22;;;;;;;;;;;;;;;17.83;100.00;101078.78;4979143;28;20480;-71
2023/06/29 04:12:48;;;;;;;21.95;10.77;;;;;;;17.94;100.00;101074.69;4993967;28;19925;-71
2023/06/29 04:15:13;;;;;;;17.07;10.97;;;;;;;17.92;100.00;101053.25;4984302;28;20391;-71
2023/06/29 04:17:38;;;;;;;19.90;11.57;;;;;;;17.89;100.00;101069.06;4988185;28;20125;-71
2023/06/29 04:20:04;;;;;;;16.00;11.60;;;;;;;18.00;100.00;101073.03;4990402;28;20026;-71
2023/06/29 04:22:30;;;;;;;17.42;12.18;;;;;;;17.91;100.00;101059.72;4990921;28;20088;-71
2023/06/29 04:24:55;;;;;;;19.17;12.67;;;;;;;17.89;100.00;101066.34;4988100;28;20360;-71
2023/06/29 04:27:20;;;;;;;18.50;11.93;;;;;;;17.93;100.00;101056.78;4987879;28;20299;-72
2023/06/29 04:29:46;;;;;;;24.47;13.80;;;;;;;17.72;100.00;101063.13;4984879;28;20108;-71
2023/06/29 04:32:11;;;;;;;17.23;11.67;;;;;;;17.90;100.00;101092.31;4992936;28;20022;-71
2023/06/29 04:34:36;;;;;;;19.20;13.23;;;;;;;17.90;100.00;101068.84;4991031;28;20117;-71
2023/06/29 04:37:02;;;;;;;22.20;13.63;;;;;;;17.89;100.00;101075.28;4988147;28;20168;-71
2023/06/29 04:39:28;;;;;;;21.30;13.60;;;;;;;17.94;100.00;101061.16;4986683;28;20038;-71
2023/06/29 04:42:00;;;;;;;25.25;12.65;;;;;;;17.84;100.00;101071.50;4988224;28;20038;-71
2023/06/29 04:44:31;;;;;;;24.63;15.55;;;;;;;17.89;100.00;101058.25;4989688;28;20479;-71
2023/06/29 04:46:59;;;;;;;21.42;14.13;;;;;;;17.97;100.00;101058.06;4988039;28;20419;-71
2023/06/29 04:49:27;;;;;;;22.50;15.23;;;;;;;18.06;100.00;101058.72;4983579;28;20031;-71
2023/06/29 04:51:55;;;;;;;25.83;15.90;;;;;;;17.98;100.00;101039.97;4991218;28;20042;-72
2023/06/29 04:54:21;;;;;;;24.63;16.05;;;;;;;18.02;100.00;101049.34;4986870;28;20122;-71
2023/06/29 04:56:47;;;;;;;26.17;16.00;;;;;;;18.06;100.00;101051.44;4995978;28;20044;-71
2023/06/29 04:59:12;;;;;;;25.23;15.27;;;;;;;18.02;100.00;101041.25;4987826;28;20026;-71
2023/06/29 05:01:38;;;;;;;24.15;15.57;;;;;;;18.09;100.00;101044.78;4990797;28;20484;-70
2023/06/29 05:04:03;;;;;;;27.93;15.27;;;;;;;18.20;100.00;101043.34;4987390;28;20026;-72
2023/06/29 05:06:28;;;;;;;25.27;14.83;;;;;;;18.26;100.00;101029.00;4987131;28;20034;-71
2023/06/29 05:08:54;;;;;;;26.10;16.90;;;;;;;18.23;100.00;101019.44;4996846;28;20113;-71
2023/06/29 05:11:19;;;;;;;25.27;15.60;;;;;;;18.19;100.00;101029.03;4990699;28;20288;-72
2023/06/29 05:13:44;;;;;;;26.20;16.23;;;;;;;18.30;100.00;101041.91;4990930;28;20108;-71
2023/06/29 05:16:10;;;;;;;25.83;14.97;;;;;;;18.50;100.00;101025.72;4983275;28;20031;-71
2023/06/29 05:18:37;;;;;;;24.73;14.20;;;;;;;18.62;100.00;101016.97;5000641;28;20038;-71
2023/06/29 05:21:03;;;;;;;26.40;16.02;;;;;;;18.47;100.00;100999.09;4987104;28;20057;-71
2023/06/29 05:23:29;;;;;;;28.65;17.60;;;;;;;18.44;100.00;101010.31;4986221;28;20124;-71
2023/06/29 05:25:54;;;;;;;27.70;17.02;;;;;;;18.28;100.00;101016.94;4988571;28;20319;-71
2023/06/29 05:28:20;;;;;;;24.57;16.57;;;;;;;18.45;100.00;101027.34;4984373;28;20113;-71
2023/06/29 05:30:45;;;;;;;22.50;14.90;;;;;;;18.59;100.00;101022.78;4989860;28;20116;-71
2023/06/29 05:33:10;;;;;;;21.33;13.23;;;;;;;18.64;100.00;101015.72;4989781;28;20390;-71
2023/06/29 05:35:36;;;;;;;33.20;16.33;;;;;;;18.35;100.00;100989.94;4991027;28;20296;-71
2023/06/29 05:38:02;;;;;;;28.20;16.70;;;;;;;18.31;100.00;101011.16;4983787;28;20148;-71
2023/06/29 05:40:27;;;;;;;29.92;17.60;;;;;;;18.22;100.00;101006.97;4988304;28;20030;-71
2023/06/29 05:42:53;;;;;;;29.83;16.67;;;;;;;18.32;100.00;101020.91;4984090;28;20045;-71
2023/06/29 05:45:18;;;;;;;24.37;13.93;;;;;;;18.62;100.00;101042.13;4983939;28;20035;-71
2023/06/29 05:47:43;;;;;;;24.37;14.97;;;;;;;18.64;100.00;101010.31;4989720;28;20030;-71
2023/06/29 05:50:09;;;;;;;26.40;16.03;;;;;;;18.54;100.00;101013.44;4985845;28;20026;-71
2023/06/29 05:52:35;;;;;;;24.67;14.57;;;;;;;18.78;100.00;101016.56;4986037;28;20080;-71
2023/06/29 05:55:01;;;;;;;25.40;16.23;;;;;;;18.87;100.00;100982.84;4983737;28;20077;-71
2023/06/29 05:57:26;;;;;;;25.60;16.73;;;;;;;19.04;100.00;100985.09;5006976;23;20276;-74
2023/06/29 05:59:52;;;;;;;31.20;17.80;;;;;;;18.85;100.00;100968.72;4977768;28;20123;-73
2023/06/29 06:02:17;;;;;;;28.87;15.33;;;;;;;18.99;100.00;100964.09;4976312;28;20018;-73
2023/06/29 06:04:43;;;;;;;27.27;16.57;;;;;;;18.79;100.00;100964.13;4991378;28;20046;-73
2023/06/29 06:07:08;;;;;;;30.00;16.67;;;;;;;18.84;100.00;100977.84;4986886;28;20507;-73
2023/06/29 06:09:34;;;;;;;23.65;14.82;;;;;;;19.52;100.00;101018.00;4963632;28;20138;-73
2023/06/29 06:11:59;;;;;;;24.50;16.03;;;;;;;20.75;100.00;100918.31;4978403;28;20036;-73
2023/06/29 06:14:24;;;;;;;23.50;14.37;;;;;;;21.77;100.00;100834.22;4975925;28;20046;-73
2023/06/29 06:16:50;;;;;;;25.03;15.63;;;;;;;22.43;100.00;100592.03;4975701;28;20034;-73
2023/06/29 06:19:15;;;;;;;25.50;15.87;;;;;;;21.69;100.00;100533.00;4978640;28;20026;-73
2023/06/29 06:21:40;;;;;;;23.00;14.80;;;;;;;22.48;100.00;100545.91;4991792;28;20082;-74
2023/06/29 06:24:06;;;;;;;20.50;13.63;;;;;;;21.82;100.00;100543.59;4978117;28;20030;-73
2023/06/29 06:26:31;;;;;;;27.60;16.10;;;;;;;22.09;100.00;100500.31;4974934;28;20114;-74
2023/06/29 06:28:56;;;;;;;27.27;17.17;;;;;;;22.24;100.00;100472.63;4976606;28;20031;-73
2023/06/29 06:31:22;;;;;;;25.03;14.10;;;;;;;22.13;100.00;100523.25;4976804;28;20467;-74
2023/06/29 06:33:47;;;;;;;24.27;15.17;;;;;;;22.29;100.00;100583.38;4975289;28;20480;-73
2023/06/29 06:36:13;;;;;;;29.73;15.43;;;;;;;22.65;100.00;100505.91;4978602;28;20273;-74
2023/06/29 06:38:38;;;;;;;28.50;15.83;;;;;;;22.13;100.00;100459.91;4976904;28;20122;-74
2023/06/29 06:41:03;;;;;;;27.07;16.47;;;;;;;22.33;100.00;100530.94;4987764;28;20320;-73
2023/06/29 06:43:29;;;;;;;27.00;15.27;;;;;;;22.26;100.00;100492.22;4980413;28;20484;-73
2023/06/29 06:45:54;;;;;;;23.80;14.67;;;;;;;22.00;100.00;100533.59;4982120;28;20081;-74
2023/06/29 06:48:19;;;;;;;22.90;13.40;;;;;;;22.07;100.00;100604.94;4983287;28;20034;-74
2023/06/29 06:50:45;;;;;;;24.57;15.63;;;;;;;21.42;100.00;100582.44;4981916;28;20302;-73
2023/06/29 06:53:10;;;;;;;25.93;17.17;;;;;;;20.62;100.00;100730.25;4990708;28;20478;-73
2023/06/29 06:55:36;;;;;;;32.60;16.43;;;;;;;20.66;100.00;100777.56;4978425;28;20650;-73
2023/06/29 06:58:01;;;;;;;27.73;16.45;;;;;;;20.77;100.00;100822.09;4981453;28;20138;-73
2023/06/29 07:00:27;;;;;;;31.73;17.65;;;;;;;20.45;100.00;100799.69;4983929;28;20428;-73
2023/06/29 07:02:52;;;;;;;25.58;14.90;;;;;;;20.53;100.00;100888.06;4980609;28;20121;-73
2023/06/29 07:05:18;;;;;;;29.70;18.27;;;;;;;20.41;100.00;100896.91;4979609;28;20551;-73
2023/06/29 07:07:45;;;;;;;26.03;16.07;;;;;;;20.16;100.00;100920.53;4979170;28;20308;-73
2023/06/29 07:10:11;;;;;;;26.20;17.17;;;;;;;20.02;100.00;100946.91;4983026;28;20053;-73
2023/06/29 07:12:37;;;;;;;27.05;17.05;;;;;;;19.65;100.00;100932.34;4977521;28;20069;-73
2023/06/29 07:15:02;;;;;;;24.43;14.87;;;;;;;19.93;100.00;101018.69;4981746;28;20038;-73
2023/06/29 07:17:28;;;;;;;31.83;16.95;;;;;;;19.72;100.00;100996.28;4980137;28;20117;-73
2023/06/29 07:19:53;;;;;;;31.90;18.07;;;;;;;20.08;100.00;101032.75;4980897;28;20035;-74
2023/06/29 07:22:19;;;;;;;25.77;16.43;;;;;;;20.14;100.00;100971.44;4981160;28;20290;-74
2023/06/29 07:24:44;;;;;;;32.10;17.80;;;;;;;19.90;100.00;100973.03;4979508;28;20085;-73
2023/06/29 07:27:09;;;;;;;26.23;16.43;;;;;;;20.12;100.00;100984.38;4989994;28;20038;-73
2023/06/29 07:29:35;;;;;;;29.93;16.50;;;;;;;19.98;100.00;100953.81;4994465;28;20436;-73
2023/06/29 07:32:00;;;;;;;28.07;16.90;;;;;;;19.96;100.00;100972.19;4981079;28;20039;-73
2023/06/29 07:34:25;;;;;;;30.40;16.60;;;;;;;20.17;100.00;100971.81;4988415;28;20022;-73
2023/06/29 07:36:51;;;;;;;27.83;15.67;;;;;;;20.05;100.00;101000.66;4979727;28;20053;-73
2023/06/29 07:39:17;;;;;;;26.98;15.77;;;;;;;20.08;100.00;101015.66;4979737;28;20114;-73
2023/06/29 07:41:43;;;;;;;30.45;17.75;;;;;;;20.29;100.00;100949.41;4977517;28;20070;-73
2023/06/29 07:44:08;;;;;;;26.65;15.68;;;;;;;20.43;100.00;100953.66;4989876;28;20034;-73
2023/06/29 07:46:34;;;;;;;32.03;17.75;;;;;;;20.31;100.00;100891.19;4993913;28;20571;-73
2023/06/29 07:49:00;;;;;;;32.58;17.88;;;;;;;20.20;100.00;100955.09;4964068;28;20019;-73
2023/06/29 07:51:31;;;;;;;30.90;17.98;;;;;;;20.67;100.00;100941.13;4978509;28;20041;-74
2023/06/29 07:53:57;;;;;;;29.73;17.05;;;;;;;20.66;100.00;100893.38;4995245;28;20043;-73
2023/06/29 07:56:23;;;;;;;30.05;18.35;;;;;;;20.74;100.00;100833.38;4983273;28;20026;-73
2023/06/29 07:58:48;;;;;;;28.70;16.03;;;;;;;21.07;100.00;100846.53;4977691;28;20416;-74
2023/06/29 08:01:13;;;;;;;31.73;17.70;;;;;;;21.02;100.00;100786.66;4981280;28;20393;-73
2023/06/29 08:03:39;;;;;;;33.53;17.80;;;;;;;20.99;100.00;100773.56;4978448;28;20042;-73
2023/06/29 08:06:05;;;;;;;34.50;18.05;;;;;;;21.27;100.00;100805.50;4980848;28;20038;-73
2023/06/29 08:08:30;;;;;;;35.57;18.83;;;;;;;21.64;100.00;100766.53;4977401;28;20113;-73
2023/06/29 08:10:56;;;;;;;34.50;18.73;;;;;;;21.63;100.00;100642.63;4978732;28;20279;-73
2023/06/29 08:13:23;;;;;;;;;;;;;;;22.03;100.00;100671.72;4978922;28;20471;-73
2023/06/29 08:15:48;;;;;;;29.75;18.65;;;;;;;21.75;100.00;100525.75;4979346;28;19914;-74
2023/06/29 08:18:13;;;;;;;34.77;20.13;;;;;;;21.39;100.00;100620.88;4981380;28;20093;-73
2023/06/29 08:20:39;;;;;;;27.10;15.87;;;;;;;22.96;100.00;100726.88;4976800;28;20039;-74
2023/06/29 08:23:05;;;;;;;26.90;16.53;;;;;;;23.48;100.00;100477.91;4980688;28;20475;-74
2023/06/29 08:25:30;;;;;;;27.75;17.30;;;;;;;22.60;100.00;100358.09;4977240;28;20570;-73
2023/06/29 08:27:55;;;;;;;32.33;17.13;;;;;;;22.54;100.00;100420.59;4980052;28;20070;-74
2023/06/29 08:30:21;;;;;;;34.63;17.87;;;;;;;22.74;100.00;100409.19;4984363;28;20073;-74
2023/06/29 08:32:48;;;;;;;;;;;;;;;22.70;100.00;100516.88;4978750;28;20468;-73
2023/06/29 08:35:14;;;;;;;31.13;17.70;;;;;;;22.70;100.00;100560.41;4979178;28;19914;-73
2023/06/29 08:37:39;;;;;;;26.98;17.15;;;;;;;22.99;100.00;100394.28;4977821;28;20336;-73
2023/06/29 08:40:06;;;;;;;28.67;16.50;;;;;;;22.82;100.00;100358.94;4981053;28;20467;-73
2023/06/29 08:42:32;;;;;;;29.65;17.25;;;;;;;23.11;100.00;100441.28;4977994;28;20327;-73
2023/06/29 08:44:57;;;;;;;27.30;16.75;;;;;;;23.36;100.00;100314.63;4979709;28;20039;-73
2023/06/29 08:47:24;;;;;;;26.77;16.23;;;;;;;23.20;100.00;100335.44;4979280;28;20034;-74
2023/06/29 08:49:55;;;;;;;23.55;15.55;;;;;;;23.77;100.00;100448.56;4960997;28;20026;-73
2023/06/29 08:52:25;;;;;;;31.10;14.45;;;;;;;24.69;100.00;100296.50;4977789;28;20054;-74
2023/06/29 08:54:52;;;;;;;25.40;15.18;;;;;;;23.66;100.00;100130.69;4977219;28;20046;-73
2023/06/29 08:57:18;;;;;;;29.70;17.55;;;;;;;22.80;100.00;100202.41;4979540;28;20026;-73
2023/06/29 08:59:45;;;;;;;26.48;14.75;;;;;;;22.53;100.00;100407.25;4977479;28;20033;-74
2023/06/29 09:02:11;;;;;;;24.35;13.77;;;;;;;23.03;100.00;100493.44;4972146;28;20488;-74
2023/06/29 09:04:37;;;;;;;26.63;14.05;;;;;;;23.40;100.00;100462.84;4977341;28;20076;-73
2023/06/29 09:07:05;;;;;;;24.87;13.10;;;;;;;22.95;100.00;100379.50;4979753;28;20484;-73
2023/06/29 09:09:31;;;;;;;26.40;13.38;;;;;;;23.01;100.00;100392.13;4960434;28;20109;-73
2023/06/29 09:11:57;;;;;;;;;;;;;;;23.38;100.00;100522.22;4978526;28;20124;-74
2023/06/29 09:14:23;;;;;;;27.38;13.75;;;;;;;23.94;100.00;100342.13;4977529;28;19909;-74
2023/06/29 09:16:53;;;;;;;22.23;13.35;;;;;;;24.71;100.00;100296.22;4976524;28;20042;-74
2023/06/29 09:19:20;;;;;;;24.55;14.45;;;;;;;24.52;100.00;100104.88;4979033;28;20035;-74
2023/06/29 09:21:47;;;;;;;25.42;15.13;;;;;;;24.62;100.00;100181.31;4976969;28;20023;-74
2023/06/29 09:24:14;;;;;;;25.00;14.30;;;;;;;25.23;100.00;100296.13;4981625;28;20116;-73
2023/06/29 09:26:39;;;;;;;22.85;15.55;;;;;;;25.37;96.52;100088.75;4976117;28;20314;-74
2023/06/29 09:29:05;;;;;;;23.80;14.52;;;;;;;24.53;97.44;100047.28;4979206;28;20114;-74
2023/06/29 09:31:35;;;;;;;25.83;14.73;;;;;;;24.47;97.26;100053.84;4982107;28;20043;-74
2023/06/29 09:34:17;;;;;;;21.88;12.98;;;;;;;24.38;100.00;100222.66;4993820;28;20503;-74
2023/06/29 09:36:43;;;;;;;25.23;14.88;;;;;;;23.77;100.00;100176.84;4975405;28;20031;-74
2023/06/29 09:39:09;;;;;;;26.15;15.07;;;;;;;23.22;100.00;100357.78;4988207;28;20018;-74
2023/06/29 09:41:49;;;;;;;23.33;14.88;;;;;;;23.64;100.00;100285.44;4975813;28;20411;-74
2023/06/29 09:44:21;;;;;;;24.25;14.70;;;;;;;24.00;100.00;100365.66;4980190;28;20045;-74
2023/06/29 09:46:51;;;;;;;24.80;16.45;;;;;;;23.97;100.00;100123.50;4977111;28;20134;-74
2023/06/29 09:49:20;;;;;;;20.00;14.10;;;;;;;23.96;100.00;100250.81;4979003;28;20057;-73
2023/06/29 09:51:48;;;;;;;22.77;14.43;;;;;;;23.53;100.00;100230.88;4975829;28;20468;-74
2023/06/29 09:54:14;;;;;;;19.50;13.23;;;;;;;23.66;100.00;100425.00;4984363;28;20081;-73
2023/06/29 09:56:40;;;;;;;24.85;13.98;;;;;;;23.82;100.00;100418.63;4976250;28;20027;-73
2023/06/29 09:59:09;;;;;;;;;;;;;;;24.42;100.00;100461.16;4980203;28;20137;-74
2023/06/29 10:01:35;;;;;;;23.58;13.75;;;;;;;24.73;100.00;100521.44;4975353;28;19917;-73
2023/06/29 10:04:02;;;;;;;;;;;;;;;24.98;97.81;100179.47;4978964;28;20459;-74
2023/06/29 10:06:48;;;;;;;24.73;13.35;;;;;;;24.69;96.47;100083.59;4977081;28;19913;-74
2023/06/29 10:09:16;;;;;;;;;;;;;;;25.26;91.96;99994.25;4980114;28;20036;-73
2023/06/29 10:11:44;;;;;;;21.10;13.65;;;;;;;25.72;90.56;100028.78;4976696;28;19936;-74
2023/06/29 10:14:13;;;;;;;21.85;14.27;;;;;;;25.63;85.83;99744.31;4974331;28;20034;-74
2023/06/29 10:16:41;;;;;;;19.85;13.10;;;;;;;25.09;87.37;99836.16;4971670;28;20034;-74
2023/06/29 10:19:18;;;;;;;21.67;14.70;;;;;;;25.64;85.17;99825.22;4979538;28;20290;-74
2023/06/29 10:21:45;;;;;;;18.20;13.55;;;;;;;26.13;84.64;99909.06;4975080;28;20131;-74
2023/06/29 10:24:14;;;;;;;23.13;13.77;;;;;;;26.83;82.47;99925.13;4970766;28;20022;-74
2023/06/29 10:26:41;;;;;;;20.17;13.30;;;;;;;26.94;78.86;99710.25;4974700;28;20042;-74
2023/06/29 10:29:07;;;;;;;20.38;12.48;;;;;;;26.02;79.88;99656.75;4978280;28;20023;-74
2023/06/29 10:31:33;;;;;;;;;;;;;;;26.33;81.12;99864.28;4976735;28;20070;-74
2023/06/29 10:33:59;;;;;;;22.33;13.30;;;;;;;26.82;79.92;99881.59;4977992;28;19961;-74
2023/06/29 10:36:25;;;;;;;20.20;13.68;;;;;;;25.97;77.70;99530.22;4976963;28;20026;-73
2023/06/29 10:38:51;;;;;;;25.15;15.05;;;;;;;25.89;77.77;99591.81;4975665;28;20097;-74
2023/06/29 10:41:27;;;;;;;19.25;13.05;;;;;;;25.72;80.54;99815.59;4977189;28;20027;-74
2023/06/29 10:43:53;;;;;;;22.80;15.13;;;;;;;25.10;80.91;99695.81;4976979;28;20035;-74
2023/06/29 10:46:44;;;;;;;21.63;14.30;;;;;;;26.15;81.54;100016.25;4976753;28;20089;-73
2023/06/29 10:49:24;;;;;;;22.42;13.43;;;;;;;26.56;79.48;99906.50;4975843;28;20023;-74
2023/06/29 10:51:51;;;;;;;21.00;13.23;;;;;;;26.59;77.35;99769.06;4975624;28;20045;-74
2023/06/29 10:54:16;;;;;;;21.17;13.88;;;;;;;25.76;78.96;99699.13;4976869;28;20468;-74
2023/06/29 10:56:58;;;;;;;26.05;15.02;;;;;;;25.98;79.44;99840.81;4975573;28;20113;-74
2023/06/29 10:59:25;;;;;;;20.50;14.10;;;;;;;25.20;80.07;99714.06;4975617;28;20570;-74
2023/06/29 11:01:51;;;;;;;21.63;14.20;;;;;;;24.52;82.86;99742.81;4976809;28;20106;-74
2023/06/29 11:04:17;;;;;;;20.80;12.68;;;;;;;24.40;82.61;99721.28;4977308;28;20121;-74
2023/06/29 11:06:42;;;;;;;;;;;;;;;24.40;84.63;99874.03;4976018;28;20105;-73